Time;durP1;ratioP1;P1;durP2;ratioP2;P2;SDS_P1;SDS_P2;PMS_P1;PMS_P2;Temp;Humidity;BMP_temperature;BMP_pressure;BME280_temperature;BME280_humidity;BME280_pressure;Samples;Min_cycle;Max_cycle;Signal;HPM_P1;HPM_P2
2022/03/16 00:00:55;;;;;;;;;19.67;18.00;;;;;;;;5070113;28;45240;-85
2022/03/16 00:03:21;;;;;;;;;18.00;18.00;;;;;;;;5064716;28;45674;-82
2022/03/16 00:05:46;;;;;;;;;18.00;17.67;;;;;;;;5042146;28;47567;-84
2022/03/16 00:08:12;;;;;;;;;17.00;16.67;;;;;;;;5060558;28;45333;-83
2022/03/16 00:10:37;;;;;;;;;20.00;18.67;;;;;;;;5043127;28;45554;-84
2022/03/16 00:13:02;;;;;;;;;18.33;16.67;;;;;;;;5061139;28;45422;-84
2022/03/16 00:15:28;;;;;;;;;20.67;19.33;;;;;;;;5042622;28;46918;-85
2022/03/16 00:17:53;;;;;;;;;19.33;19.33;;;;;;;;5043466;28;45453;-84
2022/03/16 00:20:18;;;;;;;;;21.00;20.67;;;;;;;;5063151;28;45420;-83
2022/03/16 00:22:43;;;;;;;;;22.67;20.33;;;;;;;;5063008;28;45469;-83
2022/03/16 00:25:10;;;;;;;;;17.67;17.00;;;;;;;;5062830;28;46097;-84
2022/03/16 00:27:36;;;;;;;;;21.33;20.33;;;;;;;;5041730;28;45335;-82
2022/03/16 00:30:01;;;;;;;;;21.33;20.67;;;;;;;;5063072;28;45267;-83
2022/03/16 00:32:26;;;;;;;;;28.00;25.33;;;;;;;;5063211;28;45573;-82
2022/03/16 00:34:51;;;;;;;;;19.67;19.67;;;;;;;;5061457;28;45361;-83
2022/03/16 00:37:17;;;;;;;;;22.00;20.67;;;;;;;;5041738;28;45276;-82
2022/03/16 00:39:42;;;;;;;;;21.67;21.67;;;;;;;;5060409;28;45429;-82
2022/03/16 00:42:07;;;;;;;;;21.33;20.67;;;;;;;;5059193;28;45189;-85
2022/03/16 00:44:35;;;;;;;;;29.00;29.00;;;;;;;;5058479;28;46595;-83
2022/03/16 00:47:02;;;;;;;;;31.33;27.00;;;;;;;;5040600;28;45425;-83
2022/03/16 00:49:27;;;;;;;;;25.33;24.33;;;;;;;;5040700;28;45446;-82
2022/03/16 00:51:52;;;;;;;;;16.33;16.33;;;;;;;;5058712;28;45293;-83
2022/03/16 00:54:17;;;;;;;;;22.00;22.00;;;;;;;;5042002;28;47609;-83
2022/03/16 00:56:42;;;;;;;;;24.33;23.33;;;;;;;;5064051;28;45344;-84
2022/03/16 00:59:08;;;;;;;;;21.67;21.33;;;;;;;;5061260;28;45595;-82
2022/03/16 01:01:33;;;;;;;;;25.67;25.33;;;;;;;;5060972;28;45379;-85
2022/03/16 01:03:58;;;;;;;;;26.33;24.33;;;;;;;;5059408;28;45377;-82
2022/03/16 01:06:24;;;;;;;;;20.00;20.00;;;;;;;;5062967;28;45335;-82
2022/03/16 01:08:49;;;;;;;;;24.33;24.00;;;;;;;;5040564;28;45296;-82
2022/03/16 01:11:14;;;;;;;;;28.00;27.00;;;;;;;;5060037;28;45440;-83
2022/03/16 01:13:41;;;;;;;;;25.33;25.00;;;;;;;;5059449;28;45495;-83
2022/03/16 01:16:06;;;;;;;;;22.67;22.00;;;;;;;;5063081;28;45454;-84
2022/03/16 01:18:31;;;;;;;;;23.67;23.00;;;;;;;;5064812;28;45182;-82
2022/03/16 01:20:56;;;;;;;;;26.67;23.33;;;;;;;;5062129;28;45304;-82
2022/03/16 01:23:22;;;;;;;;;25.00;23.67;;;;;;;;5062250;28;45229;-84
2022/03/16 01:25:47;;;;;;;;;27.33;26.33;;;;;;;;5062912;28;45259;-82
2022/03/16 01:28:12;;;;;;;;;29.67;29.67;;;;;;;;5063587;28;45442;-82
2022/03/16 01:30:37;;;;;;;;;30.00;26.00;;;;;;;;5065003;28;45229;-84
2022/03/16 01:33:03;;;;;;;;;25.00;23.67;;;;;;;;5045760;28;47435;-82
2022/03/16 01:35:29;;;;;;;;;25.67;24.33;;;;;;;;5062331;28;45340;-83
2022/03/16 01:37:54;;;;;;;;;25.67;25.00;;;;;;;;5063039;28;45280;-82
2022/03/16 01:40:20;;;;;;;;;28.33;27.33;;;;;;;;5061934;28;45425;-82
2022/03/16 01:42:45;;;;;;;;;29.33;26.67;;;;;;;;5043271;28;47216;-84
2022/03/16 01:45:10;;;;;;;;;28.67;25.33;;;;;;;;5061789;28;45617;-83
2022/03/16 01:47:35;;;;;;;;;28.33;27.33;;;;;;;;5043443;28;45352;-83
2022/03/16 01:50:01;;;;;;;;;26.33;25.67;;;;;;;;5061264;28;45419;-82
2022/03/16 01:52:28;;;;;;;;;32.67;26.67;;;;;;;;5043236;28;46938;-84
2022/03/16 01:54:54;;;;;;;;;25.67;25.33;;;;;;;;5061649;28;45522;-84
2022/03/16 01:57:20;;;;;;;;;24.67;23.67;;;;;;;;5043717;28;45468;-83
2022/03/16 01:59:46;;;;;;;;;26.33;26.33;;;;;;;;5061551;28;45347;-84
2022/03/16 02:02:11;;;;;;;;;28.00;27.00;;;;;;;;5043022;28;46542;-82
2022/03/16 02:04:37;;;;;;;;;24.00;23.33;;;;;;;;5061283;28;45420;-82
2022/03/16 02:07:03;;;;;;;;;26.67;26.00;;;;;;;;5062380;28;45213;-84
2022/03/16 02:09:28;;;;;;;;;27.33;26.33;;;;;;;;5043751;28;46325;-82
2022/03/16 02:11:54;;;;;;;;;31.00;29.00;;;;;;;;5061871;28;45512;-84
2022/03/16 02:14:19;;;;;;;;;31.00;28.00;;;;;;;;5061632;28;45229;-84
2022/03/16 02:16:45;;;;;;;;;31.00;30.00;;;;;;;;5042711;28;45268;-83
2022/03/16 02:19:10;;;;;;;;;29.67;29.67;;;;;;;;5022804;28;47233;-83
2022/03/16 02:21:37;;;;;;;;;26.00;26.00;;;;;;;;5040465;28;45324;-81
2022/03/16 02:24:03;;;;;;;;;27.67;27.00;;;;;;;;5023451;28;46066;-83
2022/03/16 02:26:28;;;;;;;;;32.33;29.00;;;;;;;;5040833;28;45490;-81
2022/03/16 02:28:53;;;;;;;;;25.00;22.67;;;;;;;;5021379;28;45819;-83
2022/03/16 02:31:19;;;;;;;;;31.33;29.00;;;;;;;;5040647;28;45383;-83
2022/03/16 02:33:44;;;;;;;;;29.67;29.33;;;;;;;;5023817;28;45391;-83
2022/03/16 02:36:09;;;;;;;;;23.33;22.67;;;;;;;;5023349;28;45555;-84
2022/03/16 02:38:35;;;;;;;;;30.33;23.00;;;;;;;;5042234;28;45328;-84
2022/03/16 02:41:00;;;;;;;;;24.00;24.00;;;;;;;;5022915;28;48624;-83
2022/03/16 02:43:27;;;;;;;;;22.00;19.00;;;;;;;;5043553;28;45264;-83
2022/03/16 02:45:52;;;;;;;;;26.67;25.33;;;;;;;;5041134;28;45224;-82
2022/03/16 02:48:17;;;;;;;;;26.00;24.67;;;;;;;;5040781;28;45474;-84
2022/03/16 02:50:43;;;;;;;;;24.33;22.00;;;;;;;;5040377;28;45437;-83
2022/03/16 02:53:08;;;;;;;;;19.33;19.33;;;;;;;;5040730;28;45205;-82
2022/03/16 02:55:33;;;;;;;;;22.67;21.00;;;;;;;;5040731;28;45245;-82
2022/03/16 02:57:59;;;;;;;;;25.00;24.00;;;;;;;;5022174;28;46413;-83
2022/03/16 03:00:26;;;;;;;;;21.33;20.33;;;;;;;;5021643;28;47988;-82
2022/03/16 03:02:52;;;;;;;;;21.67;19.33;;;;;;;;5039944;28;45372;-82
2022/03/16 03:05:17;;;;;;;;;22.33;21.00;;;;;;;;5038866;28;45431;-84
2022/03/16 03:07:42;;;;;;;;;26.67;25.00;;;;;;;;5040077;28;45421;-82
2022/03/16 03:10:07;;;;;;;;;26.33;23.67;;;;;;;;5021836;28;48008;-83
2022/03/16 03:12:33;;;;;;;;;23.67;22.67;;;;;;;;5041159;28;45574;-83
2022/03/16 03:14:59;;;;;;;;;24.33;23.33;;;;;;;;5044713;28;45343;-83
2022/03/16 03:17:25;;;;;;;;;14.00;13.00;;;;;;;;5060358;28;45349;-83
2022/03/16 03:19:51;;;;;;;;;26.33;24.00;;;;;;;;5060192;28;45980;-83
2022/03/16 03:22:16;;;;;;;;;21.33;20.33;;;;;;;;5060622;28;45277;-83
2022/03/16 03:24:44;;;;;;;;;20.67;20.00;;;;;;;;5041889;28;45352;-82
2022/03/16 03:27:09;;;;;;;;;23.67;22.67;;;;;;;;5042089;28;45988;-81
2022/03/16 03:29:34;;;;;;;;;22.33;20.67;;;;;;;;5059656;28;46416;-82
2022/03/16 03:31:59;;;;;;;;;19.67;19.00;;;;;;;;5059969;28;45244;-83
2022/03/16 03:34:25;;;;;;;;;20.00;19.67;;;;;;;;5060110;28;45288;-83
2022/03/16 03:36:50;;;;;;;;;23.00;21.67;;;;;;;;5059624;28;45381;-81
2022/03/16 03:39:15;;;;;;;;;22.00;16.33;;;;;;;;5042173;28;47037;-82
2022/03/16 03:41:40;;;;;;;;;22.33;20.33;;;;;;;;5060016;28;45288;-83
2022/03/16 03:44:05;;;;;;;;;26.00;24.00;;;;;;;;5042315;28;45516;-83
2022/03/16 03:46:31;;;;;;;;;21.00;19.67;;;;;;;;5043499;28;46199;-83
2022/03/16 03:48:56;;;;;;;;;25.67;24.00;;;;;;;;5060890;28;45611;-82
2022/03/16 03:51:21;;;;;;;;;20.33;20.33;;;;;;;;5060121;28;45319;-83
2022/03/16 03:53:46;;;;;;;;;24.00;24.00;;;;;;;;5059838;28;45331;-83
2022/03/16 03:56:12;;;;;;;;;24.00;24.00;;;;;;;;5059868;28;45710;-83
2022/03/16 03:58:38;;;;;;;;;22.00;21.33;;;;;;;;5059382;28;46235;-82
2022/03/16 04:01:05;;;;;;;;;24.67;23.00;;;;;;;;5041567;28;45349;-83
2022/03/16 04:03:30;;;;;;;;;21.33;21.33;;;;;;;;5044427;28;45476;-83
2022/03/16 04:05:56;;;;;;;;;23.67;23.67;;;;;;;;5059223;28;45316;-82
2022/03/16 04:08:21;;;;;;;;;18.33;18.00;;;;;;;;5060847;28;45342;-83
2022/03/16 04:10:46;;;;;;;;;19.67;18.33;;;;;;;;5076645;28;45395;-80
2022/03/16 04:13:12;;;;;;;;;22.00;18.67;;;;;;;;5083223;28;45268;-82
2022/03/16 04:15:37;;;;;;;;;23.00;22.33;;;;;;;;5081635;27;45535;-83
2022/03/16 04:18:03;;;;;;;;;25.67;24.67;;;;;;;;5081169;28;46520;-82
2022/03/16 04:20:28;;;;;;;;;21.33;19.33;;;;;;;;5080751;28;45671;-83
2022/03/16 04:22:53;;;;;;;;;22.67;22.00;;;;;;;;5080583;28;45181;-81
2022/03/16 04:25:18;;;;;;;;;19.33;18.00;;;;;;;;5078821;28;46017;-81
2022/03/16 04:27:44;;;;;;;;;19.33;18.00;;;;;;;;5080287;27;45357;-82
2022/03/16 04:30:09;;;;;;;;;20.67;19.33;;;;;;;;5082099;27;45350;-82
2022/03/16 04:32:34;;;;;;;;;22.00;21.00;;;;;;;;5078202;28;45214;-82
2022/03/16 04:35:00;;;;;;;;;18.00;18.00;;;;;;;;5079954;28;45474;-83
2022/03/16 04:37:25;;;;;;;;;24.33;22.33;;;;;;;;5078955;28;47648;-83
2022/03/16 04:39:50;;;;;;;;;22.33;22.33;;;;;;;;5080585;28;45294;-83
2022/03/16 04:42:15;;;;;;;;;21.33;21.33;;;;;;;;5081505;28;45298;-83
2022/03/16 04:44:41;;;;;;;;;21.67;19.33;;;;;;;;5080923;28;45540;-82
2022/03/16 04:47:06;;;;;;;;;21.00;19.33;;;;;;;;5081349;28;45403;-82
2022/03/16 04:49:31;;;;;;;;;22.33;20.33;;;;;;;;5084126;28;45311;-83
2022/03/16 04:51:56;;;;;;;;;22.33;22.33;;;;;;;;5082799;28;45301;-83
2022/03/16 04:54:22;;;;;;;;;22.00;20.67;;;;;;;;5085647;28;45374;-83
2022/03/16 04:56:47;;;;;;;;;21.00;20.33;;;;;;;;5085822;28;45485;-81
2022/03/16 04:59:12;;;;;;;;;18.67;18.67;;;;;;;;5084020;28;45979;-83
2022/03/16 05:01:37;;;;;;;;;27.67;25.33;;;;;;;;5083919;28;45392;-82
2022/03/16 05:04:03;;;;;;;;;28.00;25.33;;;;;;;;5084641;28;45855;-81
2022/03/16 05:06:28;;;;;;;;;28.00;26.33;;;;;;;;5082809;28;45294;-83
2022/03/16 05:08:53;;;;;;;;;25.33;23.00;;;;;;;;5082334;28;45498;-83
2022/03/16 05:11:22;;;;;;;;;25.67;25.33;;;;;;;;5084530;28;45341;-82
2022/03/16 05:13:48;;;;;;;;;20.33;20.33;;;;;;;;5085604;27;45172;-83
2022/03/16 05:16:13;;;;;;;;;25.33;22.33;;;;;;;;5056608;28;48322;-82
2022/03/16 05:18:40;;;;;;;;;27.67;25.33;;;;;;;;5045478;28;45660;-82
2022/03/16 05:21:08;;;;;;;;;30.33;28.67;;;;;;;;5065865;28;45367;-82
2022/03/16 05:23:33;;;;;;;;;23.67;22.00;;;;;;;;5065370;28;45337;-83
2022/03/16 05:25:58;;;;;;;;;31.25;29.50;;;;;;;;5043578;28;47580;-82
2022/03/16 05:28:23;;;;;;;;;30.00;28.00;;;;;;;;5045563;28;45847;-83
2022/03/16 05:30:48;;;;;;;;;28.67;28.00;;;;;;;;5044786;28;45422;-80
2022/03/16 05:33:14;;;;;;;;;26.33;25.33;;;;;;;;5044815;28;46017;-81
2022/03/16 05:35:41;;;;;;;;;30.00;26.00;;;;;;;;5063401;28;46184;-82
2022/03/16 05:38:08;;;;;;;;;27.00;26.33;;;;;;;;5044848;28;45185;-81
2022/03/16 05:40:33;;;;;;;;;30.00;30.00;;;;;;;;5061848;28;45342;-81
2022/03/16 05:42:58;;;;;;;;;27.67;27.33;;;;;;;;5044733;28;46391;-82
2022/03/16 05:45:23;;;;;;;;;33.25;30.75;;;;;;;;5061546;28;45545;-81
2022/03/16 05:47:49;;;;;;;;;34.75;32.50;;;;;;;;5061290;28;45282;-82
2022/03/16 05:50:14;;;;;;;;;29.33;29.33;;;;;;;;5061727;28;45211;-81
2022/03/16 05:52:40;;;;;;;;;28.00;27.00;;;;;;;;5059619;28;45817;-80
2022/03/16 05:55:07;;;;;;;;;30.67;30.00;;;;;;;;5061035;28;46452;-82
2022/03/16 05:57:32;;;;;;;;;32.00;27.00;;;;;;;;5060276;28;46183;-80
2022/03/16 05:59:58;;;;;;;;;31.25;30.50;;;;;;;;5061625;28;45292;-80
2022/03/16 06:02:23;;;;;;;;;37.75;33.00;;;;;;;;5054272;28;45535;-81
2022/03/16 06:04:48;;;;;;;;;34.75;31.25;;;;;;;;5056175;28;46069;-82
2022/03/16 06:07:13;;;;;;;;;31.50;30.50;;;;;;;;5060672;28;45356;-81
2022/03/16 06:09:40;;;;;;;;;25.50;25.50;;;;;;;;5059999;28;45497;-82
2022/03/16 06:12:05;;;;;;;;;37.75;32.25;;;;;;;;5060880;28;45504;-81
2022/03/16 06:14:31;;;;;;;;;38.50;34.00;;;;;;;;5063099;28;46562;-89
2022/03/16 06:16:56;;;;;;;;;41.25;34.25;;;;;;;;5061319;28;45225;-79
2022/03/16 06:19:22;;;;;;;;;40.75;35.00;;;;;;;;5061195;28;45455;-81
2022/03/16 06:21:47;;;;;;;;;31.75;31.00;;;;;;;;5060768;28;45256;-79
2022/03/16 06:24:13;;;;;;;;;32.75;29.50;;;;;;;;5059455;28;47233;-79
2022/03/16 06:26:38;;;;;;;;;35.25;31.75;;;;;;;;5060828;28;45319;-79
2022/03/16 06:29:04;;;;;;;;;33.50;31.75;;;;;;;;5060618;28;45562;-81
2022/03/16 06:31:29;;;;;;;;;32.67;30.67;;;;;;;;5059283;28;45873;-80
2022/03/16 06:33:55;;;;;;;;;32.75;31.50;;;;;;;;5059363;28;47171;-81
2022/03/16 06:36:20;;;;;;;;;35.33;33.00;;;;;;;;5061008;28;45311;-81
2022/03/16 06:38:45;;;;;;;;;37.33;32.67;;;;;;;;5059347;28;45276;-81
2022/03/16 06:41:10;;;;;;;;;36.75;32.50;;;;;;;;5060559;28;46121;-82
2022/03/16 06:43:36;;;;;;;;;34.50;29.75;;;;;;;;5052710;28;46953;-79
2022/03/16 06:46:01;;;;;;;;;27.50;27.00;;;;;;;;5055269;28;45414;-79
2022/03/16 06:48:27;;;;;;;;;36.00;33.50;;;;;;;;5064468;28;45299;-80
2022/03/16 06:50:52;;;;;;;;;32.50;31.00;;;;;;;;5068719;28;45401;-79
2022/03/16 06:53:18;;;;;;;;;25.00;24.50;;;;;;;;5062434;28;47274;-79
2022/03/16 06:55:43;;;;;;;;;37.75;32.00;;;;;;;;5067666;28;45939;-79
2022/03/16 06:58:09;;;;;;;;;36.00;31.75;;;;;;;;5067391;28;45474;-79
2022/03/16 07:00:34;;;;;;;;;39.00;34.00;;;;;;;;5074526;28;45362;-80
2022/03/16 07:03:01;;;;;;;;;40.75;36.25;;;;;;;;5071555;28;48102;-80
2022/03/16 07:05:30;;;;;;;;;36.75;32.75;;;;;;;;5074989;28;45220;-80
2022/03/16 07:07:56;;;;;;;;;36.25;31.25;;;;;;;;5062072;28;45402;-80
2022/03/16 07:10:21;;;;;;;;;42.00;34.00;;;;;;;;5058054;28;46410;-81
2022/03/16 07:12:47;;;;;;;;;38.25;33.75;;;;;;;;5058819;28;48430;-81
2022/03/16 07:15:12;;;;;;;;;39.00;33.75;;;;;;;;5064908;28;45450;-80
2022/03/16 07:17:37;;;;;;;;;44.00;36.00;;;;;;;;5079180;28;45390;-80
2022/03/16 07:20:04;;;;;;;;;36.75;32.25;;;;;;;;5075735;28;45301;-83
2022/03/16 07:22:29;;;;;;;;;38.50;34.50;;;;;;;;5053071;28;45830;-80
2022/03/16 07:24:54;;;;;;;;;43.00;35.50;;;;;;;;5060166;28;45341;-79
2022/03/16 07:27:19;;;;;;;;;37.00;32.75;;;;;;;;5053327;28;45437;-79
2022/03/16 07:29:45;;;;;;;;;38.00;32.75;;;;;;;;5056220;28;45459;-79
2022/03/16 07:32:10;;;;;;;;;36.50;32.75;;;;;;;;5054124;28;45522;-77
2022/03/16 07:34:35;;;;;;;;;32.00;30.00;;;;;;;;5060037;28;45371;-78
2022/03/16 07:37:00;;;;;;;;;39.50;35.25;;;;;;;;5058605;28;45342;-79
2022/03/16 07:39:26;;;;;;;;;39.75;32.00;;;;;;;;5058392;28;46015;-77
2022/03/16 07:41:51;;;;;;;;;41.75;34.50;;;;;;;;5059722;28;45292;-81
2022/03/16 07:44:16;;;;;;;;;38.50;33.00;;;;;;;;5058670;28;45806;-80
2022/03/16 07:46:41;;;;;;;;;39.00;34.50;;;;;;;;5058304;28;45332;-78
2022/03/16 07:49:07;;;;;;;;;47.50;38.75;;;;;;;;5060711;28;45551;-80
2022/03/16 07:51:32;;;;;;;;;45.50;37.75;;;;;;;;5058804;28;45416;-80
2022/03/16 07:53:57;;;;;;;;;45.25;37.25;;;;;;;;5059409;28;45352;-78
2022/03/16 07:56:22;;;;;;;;;44.00;37.25;;;;;;;;5059659;28;45326;-78
2022/03/16 07:58:48;;;;;;;;;41.25;34.75;;;;;;;;5057661;28;47103;-79
2022/03/16 08:01:13;;;;;;;;;42.25;36.50;;;;;;;;5057238;28;45631;-78
2022/03/16 08:03:38;;;;;;;;;41.00;35.00;;;;;;;;5056140;28;45368;-78
2022/03/16 08:06:04;;;;;;;;;45.50;35.00;;;;;;;;5057609;28;45370;-79
2022/03/16 08:08:30;;;;;;;;;36.75;31.25;;;;;;;;5056188;28;46069;-79
2022/03/16 08:10:56;;;;;;;;;36.75;32.50;;;;;;;;5057963;28;46500;-78
2022/03/16 08:13:21;;;;;;;;;34.50;32.25;;;;;;;;5058297;28;45377;-78
2022/03/16 08:15:46;;;;;;;;;39.00;34.50;;;;;;;;5069286;28;45990;-79
2022/03/16 08:18:12;;;;;;;;;36.25;33.00;;;;;;;;5078035;28;47481;-78
2022/03/16 08:20:37;;;;;;;;;41.75;36.00;;;;;;;;5079376;28;46335;-78
2022/03/16 08:23:03;;;;;;;;;39.75;33.75;;;;;;;;5079368;28;45318;-79
2022/03/16 08:25:29;;;;;;;;;46.25;38.75;;;;;;;;5079638;27;45517;-79
2022/03/16 08:27:54;;;;;;;;;38.00;33.25;;;;;;;;5081884;28;45319;-78
2022/03/16 08:30:19;;;;;;;;;38.75;33.50;;;;;;;;5083036;28;45477;-78
2022/03/16 08:32:44;;;;;;;;;42.75;33.75;;;;;;;;5082953;28;45345;-79
2022/03/16 08:35:10;;;;;;;;;38.50;33.00;;;;;;;;5083111;27;45383;-79
2022/03/16 08:37:36;;;;;;;;;39.50;33.25;;;;;;;;5082873;27;45263;-79
2022/03/16 08:40:01;;;;;;;;;36.50;32.75;;;;;;;;5082798;27;45586;-79
2022/03/16 08:42:27;;;;;;;;;37.75;33.75;;;;;;;;5081429;28;45899;-79
2022/03/16 08:44:53;;;;;;;;;36.00;32.25;;;;;;;;5081647;28;45482;-79
2022/03/16 08:47:20;;;;;;;;;39.25;35.00;;;;;;;;5082763;27;45240;-79
2022/03/16 08:49:46;;;;;;;;;38.75;34.25;;;;;;;;5082767;27;45362;-79
2022/03/16 08:52:11;;;;;;;;;39.50;34.50;;;;;;;;5082587;27;45453;-78
2022/03/16 08:54:37;;;;;;;;;42.25;35.75;;;;;;;;5082884;27;45317;-79
2022/03/16 08:57:02;;;;;;;;;40.25;34.75;;;;;;;;5081238;28;46402;-79
2022/03/16 08:59:28;;;;;;;;;34.75;31.50;;;;;;;;5081198;28;47240;-79
2022/03/16 09:01:53;;;;;;;;;35.75;33.25;;;;;;;;5082194;27;45318;-79
2022/03/16 09:04:18;;;;;;;;;33.67;31.33;;;;;;;;5082773;28;45355;-79
2022/03/16 09:06:43;;;;;;;;;37.00;33.00;;;;;;;;5080853;28;46106;-79
2022/03/16 09:09:09;;;;;;;;;35.25;33.00;;;;;;;;5080888;28;47461;-79
2022/03/16 09:11:34;;;;;;;;;36.25;32.50;;;;;;;;5082598;28;45366;-79
2022/03/16 09:14:00;;;;;;;;;34.67;32.67;;;;;;;;5082566;27;45295;-79
2022/03/16 09:16:27;;;;;;;;;39.25;35.00;;;;;;;;5066233;27;45502;-79
2022/03/16 09:18:52;;;;;;;;;36.50;33.25;;;;;;;;5062015;28;46482;-79
2022/03/16 09:21:18;;;;;;;;;39.50;35.00;;;;;;;;5062949;28;45343;-79
2022/03/16 09:23:43;;;;;;;;;34.67;31.67;;;;;;;;5060894;28;45483;-78
2022/03/16 09:26:08;;;;;;;;;31.00;29.00;;;;;;;;5062047;28;45479;-78
2022/03/16 09:28:33;;;;;;;;;36.75;32.00;;;;;;;;5061915;28;46675;-79
2022/03/16 09:30:59;;;;;;;;;38.00;33.50;;;;;;;;5061565;28;45424;-79
2022/03/16 09:33:24;;;;;;;;;36.50;31.25;;;;;;;;5060625;28;45359;-78
2022/03/16 09:35:51;;;;;;;;;36.25;32.00;;;;;;;;5061672;28;45279;-78
2022/03/16 09:38:17;;;;;;;;;31.50;30.00;;;;;;;;5060822;28;47267;-78
2022/03/16 09:40:42;;;;;;;;;36.50;32.00;;;;;;;;5061521;28;45397;-78
2022/03/16 09:43:08;;;;;;;;;34.25;32.25;;;;;;;;5061840;28;45278;-79
2022/03/16 09:45:39;;;;;;;;;34.25;31.50;;;;;;;;5060121;28;46094;-78
2022/03/16 09:48:05;;;;;;;;;32.00;28.67;;;;;;;;5061876;28;46640;-75
2022/03/16 09:50:31;;;;;;;;;35.00;31.67;;;;;;;;5052679;28;45236;-75
2022/03/16 09:52:57;;;;;;;;;32.33;29.33;;;;;;;;5050612;28;45287;-76
2022/03/16 09:55:22;;;;;;;;;42.25;34.75;;;;;;;;5041626;28;46138;-75
2022/03/16 09:57:47;;;;;;;;;41.75;35.50;;;;;;;;5044719;28;46244;-75
2022/03/16 10:00:13;;;;;;;;;37.25;32.25;;;;;;;;5040905;28;45296;-75
2022/03/16 10:02:39;;;;;;;;;40.25;35.25;;;;;;;;5041178;28;45395;-75
2022/03/16 10:05:06;;;;;;;;;40.50;35.50;;;;;;;;5056005;28;46535;-75
2022/03/16 10:07:31;;;;;;;;;49.25;39.00;;;;;;;;5061837;28;46310;-74
2022/03/16 10:15:25;;;;;;;;;46.25;36.75;;;;;;;;5058019;28;46164;-75
2022/03/16 10:17:56;;;;;;;;;44.00;36.25;;;;;;;;5052842;28;45724;-75
2022/03/16 10:20:26;;;;;;;;;43.25;36.25;;;;;;;;5061869;28;45449;-75
2022/03/16 10:22:56;;;;;;;;;42.25;36.75;;;;;;;;5063259;28;45443;-76
2022/03/16 10:25:21;;;;;;;;;45.50;37.25;;;;;;;;5052607;28;45477;-75
2022/03/16 10:27:47;;;;;;;;;44.75;37.25;;;;;;;;5045251;28;46288;-76
2022/03/16 10:30:13;;;;;;;;;43.00;37.00;;;;;;;;5043671;28;45228;-76
2022/03/16 10:32:38;;;;;;;;;43.25;35.75;;;;;;;;5041888;28;45536;-75
2022/03/16 10:35:07;;;;;;;;;40.25;35.25;;;;;;;;5049564;28;45289;-75
2022/03/16 10:37:36;;;;;;;;;37.75;33.50;;;;;;;;5054961;28;45520;-75
2022/03/16 10:40:15;;;;;;;;;38.25;33.25;;;;;;;;5057508;28;45524;-75
2022/03/16 10:48:14;;;;;;;;;43.75;37.75;;;;;;;;5041761;28;45406;-75
2022/03/16 10:50:40;;;;;;;;;37.33;32.00;;;;;;;;5039709;28;45953;-75
2022/03/16 10:53:05;;;;;;;;;38.33;33.33;;;;;;;;5054357;28;45330;-75
2022/03/16 10:55:30;;;;;;;;;39.50;34.00;;;;;;;;5061135;28;45458;-75
2022/03/16 10:57:56;;;;;;;;;41.50;34.50;;;;;;;;5060748;28;45394;-75
2022/03/16 11:00:21;;;;;;;;;40.33;35.00;;;;;;;;5059398;28;45375;-75
2022/03/16 11:02:47;;;;;;;;;37.00;32.75;;;;;;;;5048114;28;45337;-75
2022/03/16 11:05:18;;;;;;;;;40.67;33.67;;;;;;;;5053685;28;45309;-75
2022/03/16 11:07:44;;;;;;;;;36.50;32.25;;;;;;;;5039281;28;47168;-75
2022/03/16 11:10:09;;;;;;;;;34.00;31.00;;;;;;;;5057534;28;45315;-76
2022/03/16 11:15:19;;;;;;;;;35.00;31.25;;;;;;;;5071254;28;45307;-74
2022/03/16 11:17:44;;;;;;;;;32.67;29.67;;;;;;;;5083822;27;45310;-75
2022/03/16 11:20:10;;;;;;;;;31.67;30.33;;;;;;;;5083052;27;45278;-77
2022/03/16 11:25:39;;;;;;;;;44.50;37.50;;;;;;;;5080239;28;45330;-78
2022/03/16 11:28:07;;;;;;;;;38.67;32.00;;;;;;;;5080062;27;45239;-77
2022/03/16 11:30:35;;;;;;;;;36.33;31.67;;;;;;;;5078995;28;45377;-76
2022/03/16 11:33:01;;;;;;;;;39.00;33.00;;;;;;;;5081000;27;45390;-75
2022/03/16 11:35:33;;;;;;;;;39.67;33.33;;;;;;;;5088067;27;45278;-75
2022/03/16 11:38:09;;;;;;;;;39.75;33.75;;;;;;;;5080661;28;45443;-76
2022/03/16 11:40:35;;;;;;;;;34.67;32.00;;;;;;;;5079877;27;45385;-77
2022/03/16 11:43:04;;;;;;;;;41.00;34.75;;;;;;;;5080285;27;45322;-77
2022/03/16 11:45:43;;;;;;;;;35.50;32.00;;;;;;;;5080128;27;45461;-77
2022/03/16 11:48:31;;;;;;;;;38.75;31.75;;;;;;;;5077023;27;46056;-76
2022/03/16 11:51:05;;;;;;;;;52.00;42.75;;;;;;;;5056559;28;45453;-75
2022/03/16 11:53:51;;;;;;;;;44.75;37.75;;;;;;;;5057916;28;45338;-76
2022/03/16 11:56:23;;;;;;;;;43.25;37.00;;;;;;;;5058054;28;46897;-77
2022/03/16 11:58:48;;;;;;;;;40.00;34.33;;;;;;;;5059285;28;45976;-76
2022/03/16 12:01:42;;;;;;;;;41.75;35.75;;;;;;;;5059140;28;45615;-76
2022/03/16 12:04:23;;;;;;;;;41.33;34.00;;;;;;;;5056936;28;45297;-75
2022/03/16 12:06:50;;;;;;;;;41.00;35.67;;;;;;;;5057824;28;47162;-77
2022/03/16 12:09:18;;;;;;;;;36.67;33.00;;;;;;;;5059796;28;46070;-76
2022/03/16 12:14:55;;;;;;;;;34.33;32.00;;;;;;;;5067607;28;45381;-75
2022/03/16 12:17:20;;;;;;;;;34.33;31.00;;;;;;;;5081764;28;45304;-79
2022/03/16 12:20:06;;;;;;;;;31.00;28.67;;;;;;;;5082188;28;45351;-75
2022/03/16 12:22:36;;;;;;;;;28.33;27.67;;;;;;;;5079646;27;45419;-75
2022/03/16 12:25:22;;;;;;;;;32.33;30.33;;;;;;;;5067224;28;45372;-77
2022/03/16 12:30:36;;;;;;;;;34.00;31.00;;;;;;;;5060804;28;45619;-75
2022/03/16 12:33:02;;;;;;;;;37.00;32.67;;;;;;;;5064498;28;45576;-74
2022/03/16 12:35:32;;;;;;;;;36.67;32.33;;;;;;;;5060429;28;45497;-75
2022/03/16 12:37:57;;;;;;;;;40.67;33.00;;;;;;;;5055415;28;45475;-76
2022/03/16 12:40:25;;;;;;;;;36.00;32.33;;;;;;;;5057876;28;46096;-75
2022/03/16 12:42:53;;;;;;;;;36.33;32.33;;;;;;;;5059858;28;45391;-74
2022/03/16 12:45:21;;;;;;;;;35.67;32.33;;;;;;;;5062586;28;45351;-75
2022/03/16 12:47:55;;;;;;;;;30.00;27.67;;;;;;;;5061601;28;45398;-75
2022/03/16 12:50:21;;;;;;;;;30.00;28.33;;;;;;;;5061424;28;47285;-74
2022/03/16 12:52:50;;;;;;;;;34.67;31.00;;;;;;;;5060344;28;45220;-74
2022/03/16 12:55:17;;;;;;;;;33.33;30.33;;;;;;;;5058824;28;45339;-74
2022/03/16 12:57:56;;;;;;;;;34.00;30.67;;;;;;;;5059715;28;45311;-74
2022/03/16 13:00:21;;;;;;;;;31.00;28.67;;;;;;;;5059717;28;46138;-76
2022/03/16 13:02:47;;;;;;;;;27.00;27.00;;;;;;;;5059583;28;45445;-76
2022/03/16 13:05:18;;;;;;;;;31.00;28.33;;;;;;;;5058923;28;45540;-75
2022/03/16 13:07:44;;;;;;;;;35.00;30.33;;;;;;;;5054734;28;45283;-75
2022/03/16 13:10:09;;;;;;;;;34.00;29.33;;;;;;;;5059572;28;45615;-75
2022/03/16 13:12:34;;;;;;;;;33.00;29.67;;;;;;;;5056347;28;45465;-74
2022/03/16 13:15:00;;;;;;;;;37.33;31.00;;;;;;;;5061860;28;45244;-74
2022/03/16 13:17:34;;;;;;;;;33.67;31.00;;;;;;;;5052186;28;45286;-75
2022/03/16 13:19:59;;;;;;;;;33.00;30.00;;;;;;;;5061098;28;45136;-75
2022/03/16 13:22:26;;;;;;;;;29.33;27.33;;;;;;;;5069175;28;45342;-75
2022/03/16 13:24:55;;;;;;;;;29.00;27.67;;;;;;;;5071232;28;45370;-76
2022/03/16 13:27:33;;;;;;;;;32.67;30.00;;;;;;;;5052941;28;45262;-76
2022/03/16 13:29:58;;;;;;;;;34.33;31.33;;;;;;;;5048295;28;46202;-76
2022/03/16 13:32:32;;;;;;;;;32.67;30.00;;;;;;;;5044627;28;45354;-76
2022/03/16 13:35:35;;;;;;;;;31.33;30.00;;;;;;;;5056564;28;45381;-77
2022/03/16 13:38:04;;;;;;;;;29.00;27.00;;;;;;;;4985165;28;47330;-76
2022/03/16 13:40:29;;;;;;;;;30.67;29.67;;;;;;;;5002660;28;47976;-76
2022/03/16 13:43:05;;;;;;;;;34.00;30.00;;;;;;;;5030692;28;45549;-77
2022/03/16 13:45:37;;;;;;;;;34.00;30.33;;;;;;;;5047306;28;45477;-77
2022/03/16 13:48:12;;;;;;;;;32.33;29.33;;;;;;;;5046721;28;46065;-77
2022/03/16 13:50:38;;;;;;;;;29.00;27.67;;;;;;;;5051752;28;45343;-76
2022/03/16 13:53:12;;;;;;;;;35.67;31.33;;;;;;;;5057915;28;45370;-76
2022/03/16 13:55:37;;;;;;;;;31.67;30.00;;;;;;;;5049299;28;45477;-76
2022/03/16 13:58:11;;;;;;;;;30.33;28.33;;;;;;;;5043930;28;45291;-76
2022/03/16 14:00:44;;;;;;;;;32.33;28.67;;;;;;;;5060383;28;46122;-76
2022/03/16 14:03:10;;;;;;;;;47.00;38.75;;;;;;;;5051060;28;45540;-76
2022/03/16 14:05:37;;;;;;;;;28.67;27.67;;;;;;;;5064481;28;45302;-77
2022/03/16 14:08:05;;;;;;;;;63.00;49.75;;;;;;;;5064596;28;45296;-76
2022/03/16 14:10:32;;;;;;;;;69.25;52.50;;;;;;;;5065668;28;46456;-76
2022/03/16 14:13:04;;;;;;;;;29.33;29.00;;;;;;;;5063339;28;45456;-75
2022/03/16 14:15:29;;;;;;;;;51.75;42.25;;;;;;;;5072508;28;45479;-76
2022/03/16 14:17:58;;;;;;;;;56.50;44.50;;;;;;;;5084797;28;47449;-76
2022/03/16 14:20:30;;;;;;;;;50.25;41.50;;;;;;;;5087596;27;45278;-76
2022/03/16 14:22:56;;;;;;;;;39.33;33.00;;;;;;;;5086510;28;45378;-76
2022/03/16 14:25:23;;;;;;;;;26.00;26.00;;;;;;;;5085477;27;45353;-76
2022/03/16 14:27:49;;;;;;;;;29.33;28.00;;;;;;;;5082625;27;45459;-77
2022/03/16 14:30:17;;;;;;;;;27.00;25.00;;;;;;;;5081654;27;45320;-76
2022/03/16 14:32:42;;;;;;;;;21.33;21.33;;;;;;;;5069622;28;45323;-77
2022/03/16 14:35:08;;;;;;;;;20.33;19.67;;;;;;;;5054978;28;45416;-76